Latest Weather Observations for Stenhouse Bay

IDS60801

Issued at 8:35 am CST Thursday 31 July 2014 (issued every 30 minutes, with the page automatically refreshed every 10 minutes)

About weather observations | Map of weather stations | Latest weather observations for SA | Other Formats
Station Details ID: 022049 Name: STENHOUSE BAY Lat: -35.28 Lon: 136.94 Height: 42.0 m
Data from the previous 72 hours. | See also: Recent months at Stenhouse Bay
Date/Time
CST
Temp
°C
App
Temp
°C
Dew
Point
Rel
Hum
%
Delta-T
°C
Wind Press
QNH
hPa
Press
MSL
hPa
Rain
since 9 am
mm
Dir
 
Spd
km/h
Gust
km/h
Spd
kts
Gust
kts
31/08:30am 15.2 7.5 11.6 79 2.0 NW 43 63 23 34 1002.7 1002.7 0.0
31/08:00am 14.6 7.3 11.4 81 1.7 NW 41 59 22 32 1003.0 - 0.0
31/07:32am 14.4 8.1 11.2 81 1.7 NW 35 57 19 31 1003.2 - 0.0
31/07:30am 14.4 8.1 11.2 81 1.7 NW 35 54 19 29 1003.3 1003.3 0.0
31/07:23am 14.3 7.6 10.9 80 1.8 NW 37 56 20 30 1003.4 - 0.0
31/07:00am 14.4 7.0 11.2 81 1.7 NW 41 57 22 31 1003.4 - 0.0
31/06:31am 14.7 8.8 11.1 79 1.9 NW 33 54 18 29 1003.7 - 0.0
31/06:30am 14.8 8.5 11.0 78 2.0 NW 35 54 19 29 1003.7 1003.7 0.0
31/06:00am 14.5 8.5 10.7 78 2.0 NW 33 54 18 29 1003.9 1003.9 0.0
31/05:46am 14.5 7.7 10.7 78 2.0 NW 37 59 20 32 1004.1 - 0.0
31/05:30am 14.2 8.5 11.2 82 1.6 NW 32 43 17 23 1004.4 1004.4 0.0
31/05:00am 14.3 8.6 11.8 85 1.3 NW 33 52 18 28 1004.7 - 0.0
31/04:58am 14.4 8.7 11.9 85 1.3 NW 33 52 18 28 1004.7 - 0.0
31/04:30am 14.3 8.2 11.6 84 1.5 NW 35 54 19 29 1004.5 1004.5 0.0
31/04:25am 14.2 8.7 11.7 85 1.3 NW 32 52 17 28 1004.6 - 0.0
31/04:00am 14.3 9.1 11.6 84 1.4 NW 30 44 16 24 1005.1 - 0.0
31/03:36am 14.5 8.9 11.5 82 1.6 NW 32 50 17 27 1005.4 - 0.0
31/03:30am 14.5 8.7 11.5 82 1.6 NW 33 46 18 25 1005.6 1005.7 0.0
31/03:00am 14.2 9.4 11.5 84 1.4 NNW 28 43 15 23 1006.1 1006.2 0.0
31/02:33am 14.1 9.2 11.3 83 1.5 NW 28 48 15 26 1006.7 - 0.0
31/02:30am 14.1 8.8 11.3 83 1.5 NW 30 44 16 24 1006.8 1006.8 0.0
31/02:00am 14.1 8.8 11.1 82 1.6 NW 30 44 16 24 1006.9 - 0.0
31/01:30am 14.2 8.5 11.2 82 1.6 NW 32 44 17 24 1007.3 1007.3 0.0
31/01:00am 14.4 8.7 11.0 80 1.8 NW 32 46 17 25 1007.8 - 0.0
31/12:30am 14.2 8.8 10.8 80 1.8 NW 30 44 16 24 1008.4 1008.4 0.0
31/12:00am 14.2 8.5 11.0 81 1.7 NW 32 43 17 23 1008.9 1008.9 0.0
 
Date/Time
CST
Temp
°C
App
Temp
°C
Dew
Point
Rel
Hum
%
Delta-T
°C
Wind Press
QNH
hPa
Press
MSL
hPa
Rain
since 9 am
mm
Dir
 
Spd
km/h
Gust
km/h
Spd
kts
Gust
kts
30/11:30pm 13.9 8.2 11.2 84 1.4 NW 32 43 17 23 1009.3 1009.3 0.0
30/11:00pm 14.0 8.3 11.3 84 1.4 NW 32 44 17 24 1009.7 - 0.0
30/10:30pm 14.0 9.1 11.3 84 1.4 NW 28 41 15 22 1010.3 1010.3 0.0
30/10:00pm 14.2 9.3 11.2 82 1.6 NW 28 41 15 22 1010.8 - 0.0
30/09:30pm 14.5 9.1 10.9 79 1.9 NW 30 44 16 24 1011.1 1011.1 0.0
30/09:00pm 14.7 8.9 10.9 78 2.0 NW 32 46 17 25 1011.4 1011.4 0.0
30/08:30pm 14.8 9.4 10.8 77 2.1 NW 30 46 16 25 1011.7 1011.7 0.0
30/08:00pm 15.2 9.9 11.2 77 2.1 NW 30 43 16 23 1012.1 - 0.0
30/07:30pm 15.4 9.4 10.8 74 2.4 NW 33 46 18 25 1012.2 1012.2 0.0
30/07:00pm 15.2 9.5 11.2 77 2.1 NW 32 44 17 24 1012.3 - 0.0
30/06:30pm 15.1 10.5 12.4 84 1.5 NW 28 37 15 20 1012.4 1012.4 0.0
30/06:00pm 15.0 10.4 12.3 84 1.5 NW 28 41 15 22 1012.5 1012.5 0.0
30/05:30pm 14.9 10.2 12.0 83 1.6 NNW 28 43 15 23 1012.3 1012.3 0.0
30/05:11pm 15.4 10.4 12.2 81 1.7 NNW 30 48 16 26 1012.4 - 0.0
30/05:00pm 15.8 11.3 12.5 81 1.8 NNW 28 39 15 21 1012.4 - 0.0
30/04:30pm 16.4 10.6 12.6 78 2.1 NW 35 46 19 25 1012.5 1012.5 0.0
30/04:00pm 16.8 10.9 12.3 75 2.5 NW 35 48 19 26 1012.5 - 0.0
30/03:30pm 17.1 11.2 12.4 74 2.6 NW 35 50 19 27 1012.8 1012.8 0.0
30/03:00pm 17.9 13.4 12.6 71 3.0 NW 28 41 15 22 1013.1 1013.1 0.0
30/02:30pm 17.9 12.6 12.4 70 3.1 NW 32 44 17 24 1013.3 1013.3 0.0
30/02:00pm 17.8 12.6 12.9 73 2.7 NNW 32 46 17 25 1013.5 - 0.0
30/01:30pm 17.7 12.5 12.8 73 2.7 NW 32 46 17 25 1013.9 1013.9 0.0
30/01:00pm 17.4 12.1 12.5 73 2.7 NW 32 48 17 26 1014.4 - 0.0
30/12:30pm 17.5 13.1 12.8 74 2.6 NW 28 43 15 23 1015.1 1015.1 0.0
30/12:00pm 17.2 12.3 12.5 74 2.6 NW 30 41 16 22 1015.6 1015.6 0.0
30/11:30am 17.3 13.1 12.4 73 2.7 WNW 26 41 14 22 1016.2 1016.2 0.0
30/11:00am 16.7 11.2 11.8 73 2.7 WNW 32 44 17 24 1016.6 - 0.0
30/10:30am 16.8 12.0 11.5 71 2.9 WNW 28 43 15 23 1016.7 1016.7 0.0
30/10:00am 16.2 11.9 12.0 76 2.3 WNW 26 46 14 25 1016.9 - 0.0
30/09:30am 15.1 11.5 13.1 88 1.1 WNW 24 35 13 19 1016.9 1016.9 0.0
30/09:00am 15.3 11.7 13.2 87 1.2 NW 24 35 13 19 1016.9 1016.9 1.6
30/08:30am 14.2 11.3 12.9 92 0.7 NW 20 30 11 16 1016.9 1016.9 1.6
30/08:00am 14.1 11.0 13.3 95 0.4 NW 22 30 12 16 1016.7 - 1.6
30/07:30am 13.8 10.7 13.3 97 0.3 NW 22 33 12 18 1016.6 1016.6 1.6
30/07:00am 13.6 11.0 13.1 97 0.3 WNW 19 28 10 15 1016.5 - 1.6
30/06:30am 14.0 11.2 13.2 95 0.4 WNW 20 33 11 18 1016.5 1016.5 1.6
30/06:00am 14.2 11.5 12.8 91 0.8 NW 19 32 10 17 1016.2 1016.2 1.2
30/05:30am 14.4 11.7 12.8 90 0.9 WNW 19 26 10 14 1016.1 1016.1 1.2
30/05:00am 14.3 10.9 12.5 89 1.0 WNW 22 35 12 19 1015.8 - 1.2
30/04:30am 14.4 10.3 12.6 89 1.0 NW 26 35 14 19 1015.8 1015.8 1.2
30/04:00am 14.4 11.1 12.8 90 0.9 NW 22 33 12 18 1015.8 - 1.2
30/03:30am 14.4 11.4 12.6 89 1.0 NW 20 28 11 15 1016.0 1016.0 1.2
30/03:00am 14.8 11.8 12.7 87 1.2 WNW 20 32 11 17 1016.3 1016.3 1.2
30/02:30am 15.0 11.6 12.5 85 1.4 WNW 22 32 12 17 1016.5 1016.5 1.2
30/02:00am 15.1 11.2 12.2 83 1.6 WNW 24 33 13 18 1016.7 - 1.2
30/01:30am 15.0 11.4 12.0 82 1.6 WNW 22 33 12 18 1016.8 1016.8 1.2
30/01:00am 15.1 10.9 12.4 84 1.5 WNW 26 35 14 19 1017.0 - 1.2
30/12:30am 14.9 11.3 12.0 83 1.6 WNW 22 32 12 17 1017.0 1017.0 1.2
30/12:00am 14.9 11.4 12.2 84 1.5 WNW 22 33 12 18 1017.2 1017.2 1.2
 
Date/Time
CST
Temp
°C
App
Temp
°C
Dew
Point
Rel
Hum
%
Delta-T
°C
Wind Press
QNH
hPa
Press
MSL
hPa
Rain
since 9 am
mm
Dir
 
Spd
km/h
Gust
km/h
Spd
kts
Gust
kts
29/11:30pm 15.1 11.2 12.2 83 1.6 W 24 35 13 19 1017.2 1017.2 1.2
29/11:00pm 15.2 11.3 12.2 82 1.6 WNW 24 39 13 21 1017.2 - 1.2
29/10:30pm 15.2 10.3 12.7 85 1.4 WNW 30 48 16 26 1017.4 1017.4 1.2
29/10:23pm 15.2 10.7 12.7 85 1.4 WNW 28 48 15 26 1017.3 - 1.2
29/10:00pm 15.0 11.4 12.9 87 1.2 WNW 24 41 13 22 1017.3 - 1.2
29/09:30pm 14.6 11.7 12.8 89 1.0 WNW 20 33 11 18 1017.1 1017.1 1.2
29/09:00pm 14.4 10.7 12.8 90 0.9 W 24 35 13 19 1017.0 1017.0 1.2
29/08:30pm 14.5 11.6 13.9 96 0.3 WNW 22 33 12 18 1016.9 1016.9 1.2
29/08:03pm 14.1 9.6 12.5 90 0.9 W 28 48 15 26 1016.8 - 0.8
29/08:00pm 15.0 10.9 13.7 92 0.7 WNW 28 41 15 22 1016.8 - 0.8
29/07:30pm 14.9 10.7 13.4 91 0.8 WNW 28 39 15 21 1016.3 1016.3 0.8
29/07:00pm 14.7 11.3 13.6 93 0.6 WNW 24 35 13 19 1016.1 - 0.8
29/06:30pm 14.9 11.2 13.8 93 0.6 WNW 26 37 14 20 1015.8 1015.8 0.8
29/06:00pm 14.9 11.1 13.6 92 0.7 WNW 26 35 14 19 1015.6 1015.6 0.6
29/05:30pm 14.9 11.8 13.4 91 0.8 W 22 33 12 18 1015.4 1015.4 0.6
29/05:00pm 14.6 9.9 13.3 92 0.7 WNW 30 44 16 24 1015.2 - 0.6
29/04:30pm 14.0 8.9 13.1 94 0.5 WNW 32 52 17 28 1015.0 1015.0 0.6
29/04:00pm 14.9 10.1 14.1 95 0.5 WNW 32 50 17 27 1014.8 - 0.2
29/03:30pm 14.5 9.1 12.9 90 0.9 W 33 54 18 29 1014.4 1014.4 0.2
29/03:00pm 16.3 11.1 13.4 83 1.6 WNW 33 52 18 28 1014.3 1014.3 0.2
29/02:30pm 17.1 11.2 13.6 80 2.0 WNW 37 56 20 30 1014.3 1014.3 0.2
29/02:26pm 17.3 11.4 13.6 79 2.1 WNW 37 56 20 30 1014.2 - 0.2
29/02:00pm 17.4 11.7 14.1 81 1.9 W 37 56 20 30 1014.1 - 0.2
29/01:30pm 17.6 11.0 13.7 78 2.2 W 41 59 22 32 1013.9 1013.9 0.2
29/01:00pm 17.2 12.0 13.5 79 2.1 WNW 33 52 18 28 1014.0 - 0.2
29/12:30pm 17.1 10.9 12.8 76 2.4 WNW 37 63 20 34 1014.3 1014.3 0.2
29/12:23pm 17.6 11.9 13.1 75 2.5 WNW 35 56 19 30 1014.3 - 0.2
29/12:00pm 17.5 11.9 13.2 76 2.4 WNW 35 52 19 28 1014.5 1014.5 0.2
29/11:32am 17.3 11.0 12.4 73 2.7 WNW 37 57 20 31 1014.5 - 0.2
29/11:30am 17.4 10.7 12.3 72 2.8 WNW 39 57 21 31 1014.5 1014.5 0.2
29/11:00am 16.9 9.7 12.0 73 2.7 WNW 41 59 22 32 1014.7 - 0.2
29/10:32am 16.1 11.2 13.6 85 1.4 WNW 32 52 17 28 1014.7 - 0.2
29/10:30am 16.0 11.0 13.5 85 1.4 WNW 32 48 17 26 1014.8 1014.8 0.2
29/10:00am 15.4 10.9 13.8 90 0.9 WNW 30 48 16 26 1014.8 - 0.2
29/09:53am 15.1 10.9 13.6 91 0.8 WNW 28 48 15 26 1014.9 - 0.2
29/09:30am 14.6 10.9 14.0 96 0.3 WNW 26 41 14 22 1014.7 1014.7 0.2
29/09:00am 13.5 8.7 13.0 97 0.3 W 30 43 16 23 1014.7 1014.7 1.8
29/08:42am 14.8 9.6 12.8 88 1.1 W 32 52 17 28 1014.8 - 0.6
29/08:30am 14.9 10.9 12.9 88 1.1 NW 26 35 14 19 1014.2 1014.2 0.0
29/08:00am 15.3 10.0 12.4 83 1.6 NW 32 50 17 27 1014.2 - 0.0
29/07:56am 15.2 10.3 12.5 84 1.5 NW 30 50 16 27 1014.2 - 0.0
29/07:30am 15.0 10.5 12.5 85 1.4 WNW 28 44 15 24 1013.9 1013.9 0.0
29/07:00am 14.6 10.5 12.8 89 1.0 NW 26 35 14 19 1013.6 - 0.0
29/06:30am 14.6 10.9 12.8 89 1.0 WNW 24 35 13 19 1013.6 1013.6 0.0
29/06:00am 14.4 10.0 12.8 90 0.9 NW 28 41 15 22 1013.4 1013.4 0.0
29/05:37am 14.5 9.6 12.5 88 1.1 NW 30 52 16 28 1013.1 - 0.0
29/05:30am 14.5 10.0 12.5 88 1.1 NW 28 39 15 21 1013.0 1013.0 0.0
29/05:00am 14.4 10.1 12.1 86 1.2 NW 26 43 14 23 1012.8 - 0.0
29/04:30am 14.2 9.9 12.1 87 1.1 WNW 26 37 14 20 1013.2 1013.2 0.0
29/04:00am 14.1 9.0 11.8 86 1.2 NW 30 41 16 22 1013.2 - 0.0
29/03:30am 13.9 8.6 11.4 85 1.3 NW 30 44 16 24 1012.9 1012.9 0.0
29/03:00am 14.0 9.7 11.9 87 1.1 NW 26 37 14 20 1013.0 1013.0 0.0
29/02:30am 14.2 9.9 12.2 88 1.1 NW 26 37 14 20 1013.3 1013.3 0.0
29/02:00am 14.2 10.0 12.4 89 1.0 NW 26 37 14 20 1013.5 - 0.0
29/01:30am 14.0 10.6 12.4 90 0.9 NW 22 35 12 19 1013.6 1013.6 0.0
29/01:00am 14.0 10.1 12.0 88 1.1 NW 24 37 13 20 1013.9 - 0.0
29/12:30am 14.1 9.3 11.8 86 1.2 NW 28 39 15 21 1014.3 1014.3 0.0
29/12:00am 14.0 8.7 11.3 84 1.4 NW 30 46 16 25 1014.3 1014.3 0.0
 
Date/Time
CST
Temp
°C
App
Temp
°C
Dew
Point
Rel
Hum
%
Delta-T
°C
Wind Press
QNH
hPa
Press
MSL
hPa
Rain
since 9 am
mm
Dir
 
Spd
km/h
Gust
km/h
Spd
kts
Gust
kts
28/11:55pm 14.0 9.1 11.3 84 1.4 NW 28 46 15 25 1014.3 - 0.0
28/11:30pm 13.5 8.9 11.2 86 1.2 NW 26 37 14 20 1014.4 1014.4 0.0
28/11:00pm 13.4 9.2 11.1 86 1.2 NW 24 35 13 19 1014.8 - 0.0
28/10:30pm 13.5 8.9 11.2 86 1.2 NNW 26 35 14 19 1015.0 1015.0 0.0
28/10:00pm 13.6 8.6 11.0 84 1.4 NNW 28 37 15 20 1015.0 - 0.0
28/09:30pm 13.8 9.1 10.8 82 1.6 NW 26 37 14 20 1015.2 1015.2 0.0
28/09:00pm 14.2 9.6 11.0 81 1.7 NW 26 39 14 21 1015.3 1015.3 0.0
28/08:30pm 14.3 9.7 11.1 81 1.7 NW 26 39 14 21 1015.2 1015.2 0.0
28/08:00pm 14.5 9.1 10.9 79 1.9 NW 30 39 16 21 1015.1 - 0.0
28/07:30pm 14.7 9.2 10.7 77 2.1 NW 30 41 16 22 1015.0 1015.0 0.0
28/07:00pm 14.7 9.1 10.3 75 2.3 NW 30 43 16 23 1014.8 - 0.0
28/06:30pm 14.3 10.7 10.7 79 1.9 NW 20 30 11 16 1014.7 1014.7 0.0
28/06:00pm 14.3 10.8 10.9 80 1.8 NW 20 28 11 15 1014.4 1014.4 0.0
28/05:30pm 14.5 11.3 11.1 80 1.8 NW 19 24 10 13 1014.4 1014.4 0.0
28/05:00pm 15.6 12.5 11.6 77 2.2 NW 19 24 10 13 1014.4 - 0.0
28/04:30pm 16.2 12.6 10.7 70 2.9 NW 20 32 11 17 1014.4 1014.4 0.0
28/04:00pm 16.6 13.3 11.5 72 2.8 NW 20 30 11 16 1014.6 - 0.0
28/03:30pm 16.5 12.4 11.4 72 2.8 NW 24 37 13 20 1014.5 1014.5 0.0
28/03:00pm 16.6 13.0 11.7 73 2.7 NW 22 37 12 20 1014.5 1014.5 0.0
28/02:30pm 16.8 12.9 12.1 74 2.6 NNW 24 35 13 19 1014.4 1014.4 0.0
28/02:00pm 16.7 11.4 11.4 71 2.9 NW 30 41 16 22 1014.6 - 0.0
28/01:30pm 16.8 12.0 11.7 72 2.8 NW 28 37 15 20 1015.1 1015.1 0.0
28/01:00pm 16.6 10.9 11.1 70 3.0 NW 32 41 17 22 1015.6 - 0.0
28/12:30pm 16.5 11.4 10.6 68 3.1 WNW 28 43 15 23 1016.1 1016.1 0.0
28/12:00pm 16.4 10.9 10.7 69 3.0 NW 30 39 16 21 1016.6 1016.6 0.0
28/11:30am 16.6 12.3 12.0 74 2.5 NW 26 37 14 20 1016.7 1016.7 0.0
28/11:00am 16.1 11.2 11.3 73 2.6 NW 28 37 15 20 1017.0 - 0.0
28/10:30am 15.8 11.0 11.6 76 2.3 NW 28 39 15 21 1017.0 1017.0 0.0
28/10:00am 15.2 10.4 11.8 80 1.8 NW 28 37 15 20 1017.2 - 0.0
28/09:30am 14.6 10.6 11.9 84 1.5 NW 24 33 13 18 1017.4 1017.4 0.0
28/09:00am 13.8 10.7 12.2 90 0.9 NW 20 32 11 17 1017.4 1017.4 0.2

Other Formats:

Comma delimited format used in spreadsheet applications
http://www.bom.gov.au/fwo/IDS60801/IDS60801.95806.axf

JavaScript Object Notation format (JSON) in row-major order
http://www.bom.gov.au/fwo/IDS60801/IDS60801.95806.json